Flight Track Log - Related Links

Times and Time Zones

All times are in EDT time to prevent confusion due to time zone crossing. See the SWA1263 flight status page for this flight to view local times or setup timezone preferences in your user account.

Time Position Orientation Groundspeed Altitude Reporting Facility
EDT Latitude Longitude Course Direction KTS MPH feet Rate Location/Type
Sat 06:47:41 AM 39.1833 -76.7167 90° East 169 194 1,600  Level Potomac TRACON
Sat 06:48:42 AM 39.1500 -76.7500 218° Southwest 234 269 3,600 2,033 Climbing Potomac TRACON
Sat 06:49:42 AM 39.1167 -76.6667 117° Southeast 289 333 5,700 2,241 Climbing Potomac TRACON
Sat 06:51:36 AM 39.1331 -76.4692 84° East 322 371 10,100 1,977 Climbing Washington Center
Sat 06:52:38 AM 39.1403 -76.3464 86° East 327 376 11,500 1,736 Climbing Washington Center
Sat 06:53:00 AM 39.1667 -76.6202 90° East  Level FlightAware Approximate
Sat 06:53:37 AM 39.1514 -76.2125 84° East 352 405 13,600  Level Washington Center
Sat 06:54:38 AM 39.1686 -76.0922 79° East 372 428 16,100 1,916 Climbing Washington Center
Sat 06:55:36 AM 39.1836 -75.9558 82° East 372 428 17,400 1,750 Climbing Washington Center
Sat 06:56:38 AM 39.2319 -75.8247 65° Northeast 385 443 19,600 2,200 Climbing Washington Center
Sat 06:57:36 AM 39.3156 -75.7231 43° Northeast 391 450 21,800 1,966 Climbing Washington Center
Sat 06:58:37 AM 39.3989 -75.6158 45° Northeast 404 465 23,500 1,664 Climbing Washington Center
Sat 06:59:35 AM 39.4822 -75.5056 46° Northeast 412 474 25,100 1,587 Climbing Washington Center
Sat 07:00:38 AM 39.5675 -75.3950 45° Northeast 424 488 26,700 1,403 Climbing Washington Center
Sat 07:02:56 AM 39.7642 -75.1242 47° Northeast 446 513 29,800 1,378 Climbing New York Center
Sat 07:03:54 AM 39.8500 -74.9997 48° Northeast 451 519 31,200 1,462 Climbing New York Center
Sat 07:04:55 AM 39.9314 -74.8831 48° Northeast 451 519 32,700 1,388 Climbing New York Center
Sat 07:05:55 AM 40.0428 -74.7944 31° Northeast 434 499 34,000 1,059 Climbing New York Center
Sat 07:06:54 AM 40.1461 -74.7600 14° North 415 478 34,800 500 Climbing New York Center
Sat 07:07:55 AM 40.2600 -74.7175 16° North 415 478 35,000 67 Climbing New York Center
Sat 07:09:52 AM 40.4825 -74.6364 15° North 441 507 35,000  Level Boston Center
Sat 07:10:52 AM 40.5958 -74.5939 16° North 431 496 35,000  Level Boston Center
Sat 07:11:52 AM 40.7153 -74.5594 12° North 431 496 35,000  Level Boston Center
Sat 07:12:52 AM 40.8308 -74.5111 18° North 431 496 35,000  Level Boston Center
Sat 07:13:52 AM 40.9464 -74.4653 17° North 431 496 35,000  Level Boston Center
Sat 07:14:52 AM 41.0636 -74.4278 14° North 431 496 35,000  Level Boston Center
Sat 07:15:52 AM 41.1978 -74.3850 13° North 445 512 35,000  Level Boston Center
Sat 07:16:52 AM 41.3006 -74.3411 18° North 445 512 35,000  Level Boston Center
Sat 07:17:52 AM 41.4158 -74.3003 15° North 434 499 35,000  Level Boston Center
Sat 07:18:52 AM 41.5522 -74.2514 15° North 444 511 35,000 -350 Level Boston Center
Sat 07:19:52 AM 41.6569 -74.2156 14° North 444 511 34,300 -800 Descending Boston Center
Sat 07:20:52 AM 41.7744 -74.1717 16° North 438 504 33,400 -1,000 Descending Boston Center
Sat 07:21:52 AM 41.9044 -74.1278 14° North 423 487 32,300 -1,050 Descending Boston Center
Sat 07:22:52 AM 42.0178 -74.0608 24° Northeast 433 498 31,300 -950 Descending Boston Center
Sat 07:23:52 AM 42.0867 -73.9117 58° Northeast 430 495 30,400 -900 Descending Boston Center
Sat 07:24:52 AM 42.1531 -73.7619 59° Northeast 442 509 29,500 -950 Descending Boston Center
Sat 07:25:52 AM 42.2192 -73.6147 59° Northeast 472 543 28,500 -950 Descending Boston Center
Sat 07:26:52 AM 42.2853 -73.4617 60° Northeast 472 543 27,600 -950 Descending Boston Center
Sat 07:27:52 AM 42.3533 -73.3053 59° Northeast 472 543 26,600 -1,050 Descending Boston Center
Sat 07:28:52 AM 42.4189 -73.1544 59° Northeast 472 543 25,500 -1,050 Descending Boston Center
Sat 07:29:52 AM 42.4844 -73.0117 58° Northeast 459 528 24,500 -1,400 Descending Boston Center
Sat 07:30:52 AM 42.5475 -72.8600 61° Northeast 459 528 22,700 -2,000 Descending Boston Center
Sat 07:31:52 AM 42.5647 -72.7078 81° East 423 487 20,500 -2,550 Descending Boston Center
Sat 07:32:52 AM 42.6089 -72.5586 68° East 417 480 17,600 -2,650 Descending Boston Center
Sat 07:33:52 AM 42.6567 -72.4175 65° Northeast 417 480 15,200 -2,450 Descending Boston Center
Sat 07:34:52 AM 42.7086 -72.2622 65° Northeast 412 474 12,700 -2,400 Descending Boston Center
Sat 07:35:52 AM 42.7522 -72.1375 65° Northeast 401 461 10,400 -1,300 Descending Boston Center
Sat 07:36:52 AM 42.7975 -71.9986 66° East 379 436 10,100 -700 Descending Boston Center
Sat 07:37:52 AM 42.8181 -71.8994 74° East 324 373 9,000 -1,750 Descending Boston Center
Sat 07:38:52 AM 42.8006 -71.7694 100° East 299 344 6,600 -1,850 Descending Boston Center
Sat 07:39:52 AM 42.7856 -71.6706 102° East 305 351 5,300 -1,050 Descending Boston Center
Sat 07:40:52 AM 42.8244 -71.5767 61° Northeast 259 298 4,500 -1,150 Descending Boston Center
Sat 07:41:52 AM 42.8617 -71.5336 40° Northeast 206 237 3,000 -1,731 Descending Boston Center
Sat 07:42:36 AM 42.9000 -71.5000 33° Northeast 191 220 1,500 -808 Descending KA90
Sat 07:43:36 AM 42.9333 -71.4333 56° Northeast 197 227 1,600 750 Climbing KA90
Sat 07:44:36 AM 42.9500 -71.3500 75° East 252 290 3,000 737 Climbing KA90
Sat 07:45:30 AM 42.9000 -71.3000 144° Southeast 239 275 3,000  Level KA90
Sat 07:46:30 AM 42.8667 -71.3500 228° Southwest 203 234 3,000 -50 Level KA90
Sat 07:47:30 AM 42.8333 -71.4167 236° Southwest 204 235 2,900 -238 Descending KA90
Sat 07:48:36 AM 42.8000 -71.4833 236° Southwest 201 231 2,500 -333 Descending KA90
Sat 07:49:36 AM 42.8167 -71.5333 294° West 186 214 2,200 -250 Descending KA90
Sat 07:50:36 AM 42.8667 -71.5333 360° North 181 208 2,000 -500 Descending KA90
Sat 07:51:36 AM 42.9000 -71.4833 48° Northeast 170 196 1,200 -789 Descending KA90
Sat 07:52:30 AM 42.9167 -71.4500 56° Northeast 157 181 500 -778 Descending KA90
Sat 07:54:00 AM 42.9167 -71.4333 316° Northwest  Level FlightAware Approximate
Sat 08:01:00 AM 42.9328 -71.4358 316° Northwest  Level Estimated

Login

Don't have an account? Register now (free) for customized features, flight alerts, and more!